Time;durP1;ratioP1;P1;durP2;ratioP2;P2;SDS_P1;SDS_P2;PMS_P1;PMS_P2;Temp;Humidity;BMP_temperature;BMP_pressure;BME280_temperature;BME280_humidity;BME280_pressure;Samples;Min_cycle;Max_cycle;Signal;HPM_P1;HPM_P2
2022/08/10 00:02:20;;;;;;;10.23;6.40;;;;;;;17.95;70.78;100510.75;4784177;30;20039;-85
2022/08/10 00:04:47;;;;;;;8.60;6.32;;;;;;;17.95;70.73;100505.50;4750805;30;20153;-85
2022/08/10 00:07:13;;;;;;;9.75;6.10;;;;;;;17.85;70.58;100485.59;4765201;30;20062;-84
2022/08/10 00:09:39;;;;;;;7.40;5.85;;;;;;;18.14;70.45;100536.59;4781162;30;20039;-83
2022/08/10 00:12:05;;;;;;;8.50;6.47;;;;;;;18.14;70.55;100529.53;4780974;30;20051;-85
2022/08/10 00:14:31;;;;;;;6.82;6.00;;;;;;;18.15;70.55;100527.78;4765876;30;20131;-84
2022/08/10 00:16:57;;;;;;;7.50;5.80;;;;;;;18.06;70.55;100510.47;4766507;30;20143;-83
2022/08/10 00:19:23;;;;;;;7.18;5.78;;;;;;;17.88;70.36;100485.50;4765050;30;20047;-86
2022/08/10 00:21:50;;;;;;;10.05;6.00;;;;;;;18.06;70.24;100519.22;4779407;30;20138;-84
2022/08/10 00:24:16;;;;;;;7.28;5.70;;;;;;;18.00;70.12;100503.59;4759042;30;20079;-83
2022/08/10 00:26:42;;;;;;;9.82;5.78;;;;;;;18.23;70.13;100538.94;4759597;30;20052;-84
2022/08/10 00:29:08;;;;;;;10.15;5.85;;;;;;;17.95;70.01;100502.84;4758621;30;20078;-84
2022/08/10 00:31:35;;;;;;;11.05;6.32;;;;;;;18.08;69.98;100526.22;4761391;30;20146;-85
2022/08/10 00:34:01;;;;;;;8.60;5.50;;;;;;;18.15;70.07;100535.69;4764440;30;20048;-83
2022/08/10 00:36:27;;;;;;;9.40;6.60;;;;;;;17.84;70.19;100492.63;4764283;30;20047;-84
2022/08/10 00:38:53;;;;;;;7.32;5.70;;;;;;;17.99;70.13;100517.66;4764461;30;20537;-84
2022/08/10 00:41:19;;;;;;;8.45;6.90;;;;;;;18.10;69.93;100540.22;4763791;30;20447;-83
2022/08/10 00:43:45;;;;;;;6.60;5.70;;;;;;;18.05;70.23;100540.34;4763407;30;20048;-84
2022/08/10 00:46:12;;;;;;;9.10;5.90;;;;;;;17.76;70.10;100492.81;4765681;30;20062;-84
2022/08/10 00:48:38;;;;;;;10.00;5.80;;;;;;;17.91;70.16;100512.59;4764790;30;20046;-84
2022/08/10 00:51:04;;;;;;;7.43;5.85;;;;;;;17.97;70.25;100508.06;4758364;30;20063;-84
2022/08/10 00:53:30;;;;;;;5.82;5.00;;;;;;;18.15;70.05;100533.06;4785104;29;20056;-84
2022/08/10 00:55:56;;;;;;;10.98;5.68;;;;;;;17.80;70.14;100474.31;4780940;29;20101;-84
2022/08/10 00:58:23;;;;;;;9.07;5.68;;;;;;;17.92;70.31;100495.03;4772850;30;20052;-85
2022/08/10 01:00:50;;;;;;;7.72;5.30;;;;;;;18.02;70.36;100512.31;4750521;30;20067;-84
2022/08/10 01:03:16;;;;;;;6.85;5.00;;;;;;;18.11;70.33;100520.88;4762362;30;20489;-84
2022/08/10 01:06:18;;;;;;;8.20;5.47;;;;;;;18.04;70.16;100507.88;4761176;30;20106;-84
2022/08/10 01:08:54;;;;;;;7.00;4.93;;;;;;;18.15;70.35;100530.41;4735659;30;20059;-84
2022/08/10 01:11:26;;;;;;;6.93;5.25;;;;;;;18.14;70.35;100521.63;4747970;30;20143;-83
2022/08/10 01:14:27;;;;;;;6.57;5.05;;;;;;;18.05;70.50;100509.59;4765251;30;20071;-84
2022/08/10 01:17:01;;;;;;;6.13;4.90;;;;;;;18.20;70.45;100528.53;4750797;30;20056;-83
2022/08/10 01:19:46;;;;;;;5.55;4.95;;;;;;;18.21;70.29;100527.59;4768549;30;20118;-83
2022/08/10 01:22:33;;;;;;;6.80;4.45;;;;;;;18.00;70.33;100479.91;4763541;30;20052;-82
2022/08/10 01:25:18;;;;;;;8.60;4.80;;;;;;;18.20;70.23;100515.34;4764587;30;20063;-82
2022/08/10 01:27:58;;;;;;;5.35;4.85;;;;;;;18.19;70.30;100516.25;4766069;30;20044;-84
2022/08/10 01:30:29;;;;;;;10.00;4.82;;;;;;;18.13;70.07;100514.66;4750803;30;20059;-83
2022/08/10 01:33:08;;;;;;;7.55;4.82;;;;;;;18.12;70.29;100512.91;4751643;30;20229;-83
2022/08/10 01:35:45;;;;;;;10.30;4.85;;;;;;;18.14;70.38;100532.16;4763521;30;20048;-83
2022/08/10 01:38:22;;;;;;;6.38;4.65;;;;;;;18.15;70.30;100530.41;4751978;30;20051;-83
2022/08/10 01:40:53;;;;;;;6.32;4.20;;;;;;;18.16;70.09;100537.41;4749893;30;20638;-83
2022/08/10 01:43:20;;;;;;;7.25;4.22;;;;;;;18.12;70.35;100530.50;4747021;30;20052;-83
2022/08/10 01:45:50;;;;;;;8.25;4.50;;;;;;;18.17;70.39;100539.13;4747880;30;20040;-84
2022/08/10 01:48:29;;;;;;;5.85;4.70;;;;;;;18.10;70.28;100532.31;4752104;30;20108;-83
2022/08/10 01:51:15;;;;;;;6.07;4.30;;;;;;;18.15;70.32;100547.06;4762550;30;20117;-83
2022/08/10 01:53:50;;;;;;;4.40;4.00;;;;;;;18.11;70.12;100555.09;4752411;30;20046;-83
2022/08/10 01:56:19;;;;;;;6.25;4.47;;;;;;;18.04;70.11;100531.56;4737619;30;20056;-84
2022/08/10 01:58:51;;;;;;;5.13;4.00;;;;;;;17.97;69.94;100514.22;4770703;30;20043;-84
2022/08/10 02:01:22;;;;;;;7.80;4.35;;;;;;;18.03;70.04;100521.94;4754324;30;20128;-84
2022/08/10 02:03:52;;;;;;;8.35;4.45;;;;;;;18.05;69.77;100525.41;4767669;30;20046;-83
2022/08/10 02:06:19;;;;;;;7.28;4.25;;;;;;;18.10;69.73;100545.47;4737472;30;20048;-84
2022/08/10 02:08:48;;;;;;;8.05;4.80;;;;;;;17.95;69.81;100539.72;4761934;30;20052;-83
2022/08/10 02:11:15;;;;;;;5.90;4.07;;;;;;;17.98;70.21;100544.03;4773842;30;20043;-82
2022/08/10 02:14:02;;;;;;;6.05;4.28;;;;;;;17.90;69.85;100546.88;4762262;30;20052;-84
2022/08/10 02:16:31;;;;;;;5.53;4.55;;;;;;;17.69;69.94;100532.50;4771392;30;20036;-84
2022/08/10 02:19:01;;;;;;;7.43;4.28;;;;;;;17.78;70.31;100550.69;4764120;30;20141;-84
2022/08/10 02:21:29;;;;;;;4.70;4.03;;;;;;;17.72;70.18;100550.84;4760436;30;20139;-83
2022/08/10 02:23:59;;;;;;;9.43;4.47;;;;;;;17.65;70.57;100551.94;4764321;30;20617;-83
2022/08/10 02:26:26;;;;;;;4.65;4.15;;;;;;;17.49;70.37;100526.00;4768352;30;20048;-82
2022/08/10 02:29:13;;;;;;;7.93;4.43;;;;;;;17.31;70.30;100498.44;4776242;30;20036;-83
2022/08/10 02:31:41;;;;;;;4.95;4.18;;;;;;;17.43;70.47;100511.25;4776349;30;20074;-84
2022/08/10 02:34:10;;;;;;;7.70;3.95;;;;;;;17.75;70.48;100554.28;4788466;30;20048;-81
2022/08/10 02:36:42;;;;;;;5.53;3.92;;;;;;;17.69;70.60;100536.03;4791091;30;20031;-83
2022/08/10 02:39:08;;;;;;;;;;;;;;;17.92;70.43;100560.84;4784302;30;20586;-81
2022/08/10 02:41:41;;;;;;;8.57;3.97;;;;;;;17.99;70.26;100551.03;4755169;30;19949;-82
2022/08/10 02:44:38;;;;;;;7.97;3.80;;;;;;;17.94;70.15;100531.84;4756211;30;20537;-81
2022/08/10 02:47:11;;;;;;;5.30;3.83;;;;;;;18.03;69.93;100544.78;4739749;30;20052;-83
2022/08/10 02:49:50;;;;;;;6.20;3.58;;;;;;;18.06;69.93;100547.34;4741061;30;20067;-83
2022/08/10 02:52:33;;;;;;;5.55;3.65;;;;;;;18.08;69.75;100549.94;4752876;30;20047;-85
2022/08/10 02:55:10;;;;;;;4.57;3.10;;;;;;;18.09;69.81;100556.91;4754795;30;20048;-85
2022/08/10 02:57:41;;;;;;;5.18;3.63;;;;;;;18.08;69.55;100553.44;4758936;30;20048;-83
2022/08/10 03:00:08;;;;;;;7.18;3.75;;;;;;;18.08;69.81;100550.81;4761290;30;20043;-83
2022/08/10 03:02:40;;;;;;;6.15;3.60;;;;;;;18.10;69.49;100551.59;4724610;30;20428;-84
2022/08/10 03:05:10;;;;;;;5.72;3.60;;;;;;;18.14;69.50;100545.34;4739900;30;20055;-81
2022/08/10 03:07:47;;;;;;;3.63;3.25;;;;;;;18.31;69.60;100547.50;4733582;30;20136;-81
2022/08/10 03:10:17;;;;;;;4.72;3.90;;;;;;;18.40;69.76;100540.25;4754712;30;20039;-82
2022/08/10 03:12:49;;;;;;;7.13;4.82;;;;;;;18.74;69.20;100566.44;4742239;30;20138;-81
2022/08/10 03:15:18;;;;;;;4.00;3.60;;;;;;;18.74;68.80;100533.94;4724253;30;20091;-83
2022/08/10 03:17:46;;;;;;;5.20;3.25;;;;;;;19.13;68.73;100554.69;4770799;30;20126;-81
2022/08/10 03:20:14;;;;;;;5.38;3.10;;;;;;;19.10;68.33;100526.66;4749433;30;20106;-81
2022/08/10 03:22:41;;;;;;;7.13;3.10;;;;;;;19.35;68.13;100531.13;4748908;30;20051;-82
2022/08/10 03:25:11;;;;;;;3.17;2.85;;;;;;;19.13;67.43;100494.03;4762862;30;20070;-83
2022/08/10 03:27:39;;;;;;;5.82;3.08;;;;;;;19.20;67.60;100505.25;4771585;30;20043;-88
2022/08/10 03:30:06;;;;;;;3.75;3.00;;;;;;;19.56;67.10;100549.75;4766906;30;20051;-83
2022/08/10 03:32:33;;;;;;;3.47;2.90;;;;;;;19.15;66.99;100494.84;4769220;30;20047;-82
2022/08/10 03:35:00;;;;;;;5.63;3.08;;;;;;;19.30;66.90;100508.44;4754820;30;20043;-86
2022/08/10 03:37:26;;;;;;;7.05;2.97;;;;;;;19.52;66.77;100542.84;4769719;30;20046;-84
2022/08/10 03:39:53;;;;;;;4.63;3.10;;;;;;;19.70;66.50;100558.06;4754024;30;20040;-86
2022/08/10 03:42:25;;;;;;;4.68;2.80;;;;;;;19.80;66.24;100563.03;4777509;30;20090;-87
2022/08/10 03:44:58;;;;;;;4.15;3.10;;;;;;;19.75;66.42;100533.28;4784422;30;20178;-87
2022/08/10 03:47:28;;;;;;;4.53;2.80;;;;;;;19.98;66.02;100545.66;4766652;30;20140;-85
2022/08/10 03:49:55;;;;;;;4.50;2.88;;;;;;;20.28;65.76;100559.56;4760969;30;20386;-87
2022/08/10 03:52:29;;;;;;;4.50;3.13;;;;;;;20.53;65.63;100558.59;4751351;30;20047;-86
2022/08/10 03:54:58;;;;;;;7.00;3.35;;;;;;;20.42;64.56;100527.28;4754159;30;20077;-86
2022/08/10 03:57:30;;;;;;;6.13;2.97;;;;;;;20.31;64.33;100503.06;4754528;30;20146;-89
2022/08/10 03:59:59;;;;;;;3.78;2.75;;;;;;;20.66;64.51;100545.78;4746896;30;20124;-84
2022/08/10 04:02:34;;;;;;;6.60;2.80;;;;;;;20.57;63.73;100548.78;4773859;29;20051;-86
2022/08/10 04:05:31;;;;;;;4.07;2.67;;;;;;;20.21;63.93;100520.19;4773273;29;20071;-86
2022/08/10 04:08:09;;;;;;;4.38;3.00;;;;;;;20.23;63.77;100550.06;4754114;30;20066;-84
2022/08/10 04:10:35;;;;;;;4.43;2.85;;;;;;;20.31;63.61;100550.66;4752422;30;20048;-86
2022/08/10 04:13:01;;;;;;;4.80;2.47;;;;;;;20.26;63.48;100537.63;4759203;30;20044;-84
2022/08/10 04:15:27;;;;;;;4.65;2.75;;;;;;;20.17;63.50;100530.91;4763480;30;20494;-83
2022/08/10 04:17:53;;;;;;;4.53;2.90;;;;;;;19.99;63.19;100513.06;4758429;30;20048;-86
2022/08/10 04:20:39;;;;;;;4.93;2.60;;;;;;;20.16;63.65;100560.88;4763486;30;20047;-84
2022/08/10 04:23:14;;;;;;;3.28;2.55;;;;;;;20.06;63.37;100542.78;4761299;30;20645;-86
2022/08/10 04:25:40;;;;;;;6.35;4.13;;;;;;;20.18;63.26;100568.72;4763317;30;20556;-87
2022/08/10 04:28:09;;;;;;;4.90;3.17;;;;;;;19.88;63.35;100518.75;4763324;30;20044;-87
2022/08/10 04:30:37;;;;;;;7.18;3.38;;;;;;;20.25;63.26;100572.00;4767054;30;20067;-83
2022/08/10 04:33:05;;;;;;;5.75;2.90;;;;;;;19.97;63.44;100513.13;4750032;30;20370;-87
2022/08/10 04:35:32;;;;;;;7.03;3.40;;;;;;;20.29;63.37;100528.69;4749500;30;20092;-86
2022/08/10 04:38:01;;;;;;;3.22;2.90;;;;;;;20.59;63.09;100526.66;4744639;30;20054;-83
2022/08/10 04:40:27;;;;;;;3.42;2.92;;;;;;;21.17;62.09;100590.53;4761241;30;20100;-86
2022/08/10 04:42:53;;;;;;;5.15;3.00;;;;;;;21.06;61.72;100546.88;4717517;30;20075;-83
2022/08/10 04:45:19;;;;;;;10.55;4.05;;;;;;;20.95;61.06;100541.16;4744595;30;20535;-83
2022/08/10 04:47:45;;;;;;;4.63;3.30;;;;;;;21.10;61.18;100573.19;4751548;30;20051;-83
2022/08/10 04:50:12;;;;;;;4.30;2.97;;;;;;;20.85;61.15;100537.16;4751564;30;20122;-83
2022/08/10 04:52:38;;;;;;;6.68;3.78;;;;;;;20.71;60.84;100532.41;4766658;30;20128;-84
2022/08/10 04:55:04;;;;;;;4.78;3.63;;;;;;;20.80;60.63;100550.56;4760494;30;20051;-83
2022/08/10 04:57:31;;;;;;;6.40;3.53;;;;;;;20.84;60.59;100551.31;4779898;30;20044;-83
2022/08/10 04:59:57;;;;;;;3.42;3.13;;;;;;;20.84;60.39;100552.16;4766886;30;20055;-83
2022/08/10 05:02:24;;;;;;;4.28;3.83;;;;;;;21.09;60.91;100587.34;4750155;30;20066;-84
2022/08/10 05:04:50;;;;;;;4.43;3.30;;;;;;;20.93;60.46;100545.63;4784419;30;20095;-83
2022/08/10 05:07:16;;;;;;;6.50;3.75;;;;;;;21.13;60.40;100568.66;4782396;30;20052;-84
2022/08/10 05:09:43;;;;;;;11.32;3.60;;;;;;;21.31;59.90;100572.31;4768918;30;20071;-83
2022/08/10 05:12:09;;;;;;;6.68;3.53;;;;;;;21.40;59.56;100572.84;4761874;30;20052;-84
2022/08/10 05:14:35;;;;;;;4.03;3.63;;;;;;;21.32;59.33;100544.06;4760439;30;20760;-82
2022/08/10 05:17:01;;;;;;;4.80;3.70;;;;;;;21.45;58.87;100557.66;4746835;30;20072;-82
2022/08/10 05:19:27;;;;;;;4.03;3.28;;;;;;;21.20;59.05;100521.63;4761741;30;20076;-83
2022/08/10 05:21:53;;;;;;;7.55;3.67;;;;;;;21.07;57.93;100514.19;4765335;30;20059;-82
2022/08/10 05:24:19;;;;;;;4.78;3.75;;;;;;;21.15;58.70;100528.88;4748712;30;20052;-83
2022/08/10 05:26:45;;;;;;;8.10;4.50;;;;;;;21.13;59.33;100520.16;4764122;30;20094;-83
2022/08/10 05:29:11;;;;;;;7.05;3.95;;;;;;;21.52;58.49;100559.97;4762359;30;20070;-82
2022/08/10 05:31:37;;;;;;;4.25;3.40;;;;;;;21.52;59.04;100535.25;4764700;30;20068;-82
2022/08/10 05:34:03;;;;;;;3.92;3.15;;;;;;;21.65;58.24;100510.03;4764248;30;20136;-80
2022/08/10 05:36:32;;;;;;;4.25;3.22;;;;;;;22.09;57.96;100547.84;4773202;30;20048;-81
2022/08/10 05:39:00;;;;;;;6.15;3.00;;;;;;;22.17;57.71;100531.59;4787026;29;20055;-81
2022/08/10 05:41:27;;;;;;;4.88;3.08;;;;;;;22.48;56.17;100520.44;4774427;30;20055;-82
2022/08/10 05:43:55;;;;;;;5.03;2.97;;;;;;;22.78;56.40;100540.25;4764659;30;20048;-83
2022/08/10 05:46:21;;;;;;;5.30;2.97;;;;;;;23.03;56.11;100526.66;4777353;30;20048;-81
2022/08/10 05:48:48;;;;;;;3.70;3.15;;;;;;;23.05;56.06;100526.59;4760579;30;20048;-83
2022/08/10 05:51:16;;;;;;;5.80;3.10;;;;;;;23.16;55.28;100559.63;4763516;30;20206;-81
2022/08/10 05:53:44;;;;;;;4.60;2.88;;;;;;;22.86;54.29;100536.28;4763842;30;20044;-85
2022/08/10 05:56:11;;;;;;;5.43;2.72;;;;;;;23.10;55.06;100567.03;4767952;29;20058;-83
2022/08/10 05:58:38;;;;;;;7.07;3.22;;;;;;;23.14;54.53;100548.22;4752898;30;20075;-85
2022/08/10 06:01:11;;;;;;;4.57;2.85;;;;;;;23.44;54.60;100555.63;4747470;30;20069;-83
2022/08/10 06:03:45;;;;;;;4.85;2.60;;;;;;;23.76;54.06;100569.00;4769922;30;20524;-85
2022/08/10 06:06:13;;;;;;;3.35;3.05;;;;;;;24.24;53.21;100540.91;4760223;30;20047;-83
2022/08/10 06:08:41;;;;;;;4.22;2.97;;;;;;;25.71;52.52;100569.81;4761447;30;20097;-83
2022/08/10 06:11:10;;;;;;;3.40;2.45;;;;;;;27.88;51.31;100563.97;4762508;30;20044;-82
2022/08/10 06:16:23;;;;;;;5.47;2.38;;;;;;;31.51;43.29;100530.75;4764630;30;20055;-83
2022/08/10 06:18:51;;;;;;;4.38;2.58;;;;;;;32.96;39.48;100545.88;4783390;29;20108;-85
2022/08/10 06:21:18;;;;;;;3.47;2.45;;;;;;;34.02;37.13;100563.03;4772619;29;20040;-83
2022/08/10 06:23:45;;;;;;;6.32;2.70;;;;;;;34.89;36.09;100550.00;4773075;29;20509;-83
2022/08/10 06:26:12;;;;;;;3.72;2.70;;;;;;;36.13;33.90;100569.03;4764420;30;20055;-84
2022/08/10 06:28:42;;;;;;;2.60;2.40;;;;;;;37.36;32.02;100563.00;4747753;30;20067;-86
2022/08/10 06:31:11;;;;;;;4.63;2.00;;;;;;;37.69;30.04;100559.41;4744870;30;20420;-84
2022/08/10 06:33:39;;;;;;;2.10;1.90;;;;;;;37.80;29.13;100561.78;4745680;30;20052;-85
2022/08/10 06:36:07;;;;;;;3.60;1.80;;;;;;;37.43;28.33;100565.09;4762262;30;20105;-84
2022/08/10 06:38:35;;;;;;;7.97;2.28;;;;;;;37.11;28.43;100561.31;4747489;30;20133;-83
2022/08/10 06:41:07;;;;;;;7.25;2.10;;;;;;;37.15;27.62;100579.81;4746861;30;20043;-85
2022/08/10 06:43:35;;;;;;;4.32;1.80;;;;;;;37.04;28.44;100531.34;4761990;30;20055;-83
2022/08/10 06:46:07;;;;;;;2.17;1.60;;;;;;;36.95;27.06;100579.28;4739060;30;20485;-82
2022/08/10 06:48:40;;;;;;;2.53;1.73;;;;;;;36.11;27.87;100615.22;4748072;30;20052;-82
2022/08/10 06:51:14;;;;;;;3.53;1.75;;;;;;;36.96;26.85;100555.75;4757725;30;20141;-82
2022/08/10 06:53:47;;;;;;;2.47;1.50;;;;;;;36.61;25.67;100599.22;4773439;30;20028;-85
2022/08/10 06:56:17;;;;;;;2.60;1.50;;;;;;;36.28;27.10;100575.53;4769187;30;20080;-84
2022/08/10 06:58:52;;;;;;;2.60;1.60;;;;;;;37.10;26.38;100601.16;4760537;30;20501;-83
2022/08/10 07:01:21;;;;;;;1.55;1.45;;;;;;;36.21;26.20;100581.75;4765159;30;20071;-80
2022/08/10 07:04:12;;;;;;;2.50;1.45;;;;;;;34.90;27.46;100583.31;4773518;30;20052;-84
2022/08/10 07:06:47;;;;;;;2.60;1.50;;;;;;;33.33;29.22;100564.00;4757468;30;20074;-83
2022/08/10 07:09:15;;;;;;;2.22;1.40;;;;;;;32.46;29.07;100560.22;4751789;30;20093;-82
2022/08/10 07:11:46;;;;;;;1.77;1.42;;;;;;;32.15;30.21;100609.53;4775918;30;20035;-82
2022/08/10 07:14:16;;;;;;;7.00;1.42;;;;;;;32.43;29.98;100539.84;4762308;30;20023;-81
2022/08/10 07:16:45;;;;;;;1.40;1.30;;;;;;;33.28;29.37;100587.00;4753140;30;20151;-81
2022/08/10 07:19:12;;;;;;;2.08;1.05;;;;;;;34.22;28.57;100561.94;4774639;30;20048;-84
2022/08/10 07:21:42;;;;;;;1.40;1.20;;;;;;;34.04;28.48;100544.84;4747623;30;20048;-82
2022/08/10 07:24:10;;;;;;;1.80;1.27;;;;;;;33.65;29.07;100594.38;4770909;30;20424;-82
2022/08/10 07:26:42;;;;;;;1.58;1.25;;;;;;;32.96;28.64;100586.31;4737125;30;20044;-81
2022/08/10 07:29:09;;;;;;;1.85;1.48;;;;;;;32.51;30.11;100592.16;4744262;30;20072;-82
2022/08/10 07:31:37;;;;;;;1.25;1.15;;;;;;;33.38;30.16;100587.03;4746243;30;20051;-80
2022/08/10 07:34:08;;;;;;;2.35;1.20;;;;;;;35.47;28.52;100583.00;4768656;30;20046;-81
2022/08/10 07:36:38;;;;;;;6.53;1.42;;;;;;;38.15;25.44;100580.53;4745271;30;20052;-81
2022/08/10 07:39:06;;;;;;;2.72;1.30;;;;;;;39.88;23.09;100572.97;4761530;30;20707;-79
2022/08/10 07:41:33;;;;;;;1.70;1.20;;;;;;;41.29;21.43;100559.22;4761341;30;20119;-83
2022/08/10 07:44:03;;;;;;;1.90;1.08;;;;;;;41.89;20.44;100567.81;4752763;30;20039;-81
2022/08/10 07:46:32;;;;;;;6.43;1.20;;;;;;;41.17;20.27;100553.44;4755594;30;20200;-86
2022/08/10 07:49:13;;;;;;;1.30;1.20;;;;;;;41.64;20.57;100567.47;4756967;30;20067;-79
2022/08/10 07:51:41;;;;;;;2.05;1.30;;;;;;;42.58;19.21;100535.13;4753210;30;20573;-82
2022/08/10 07:54:14;;;;;;;2.00;1.00;;;;;;;43.58;18.62;100536.16;4722929;30;20082;-83
2022/08/10 07:56:48;;;;;;;1.77;1.30;;;;;;;44.31;17.56;100562.47;4754227;30;20048;-82
2022/08/10 07:59:34;;;;;;;2.30;1.23;;;;;;;42.99;18.00;100557.88;4769070;30;20047;-82
2022/08/10 08:02:03;;;;;;;1.27;1.17;;;;;;;41.27;19.17;100550.41;4727136;30;20047;-82
2022/08/10 08:04:31;;;;;;;1.40;1.27;;;;;;;39.96;19.76;100543.94;4754611;30;20043;-85
2022/08/10 08:07:03;;;;;;;4.35;1.20;;;;;;;38.72;21.01;100567.66;4754873;30;20103;-82
2022/08/10 08:09:30;;;;;;;1.90;1.45;;;;;;;37.83;21.34;100561.44;4723777;30;20039;-81
2022/08/10 08:11:58;;;;;;;1.58;1.20;;;;;;;36.61;22.98;100545.84;4753535;30;20424;-82
2022/08/10 08:14:26;;;;;;;2.22;1.25;;;;;;;35.84;24.02;100535.88;4769913;30;20517;-82
2022/08/10 08:16:54;;;;;;;1.52;1.30;;;;;;;35.49;23.97;100561.19;4752438;30;20079;-86
2022/08/10 08:19:21;;;;;;;1.80;1.30;;;;;;;35.27;23.74;100557.97;4763169;30;20138;-86
2022/08/10 08:21:48;;;;;;;3.15;1.60;;;;;;;35.24;23.66;100566.41;4733451;30;20050;-86
2022/08/10 08:27:51;;;;;;;3.92;1.40;;;;;;;36.05;24.07;100552.75;4817684;24;20072;-85
2022/08/10 08:30:20;;;;;;;1.55;1.25;;;;;;;36.34;24.12;100536.94;4955776;24;20052;-86
2022/08/10 08:32:48;;;;;;;1.60;1.20;;;;;;;37.20;23.33;100561.16;4767022;30;20048;-86
2022/08/10 08:35:17;;;;;;;6.78;1.70;;;;;;;36.55;23.15;100527.53;4766459;30;20066;-86
2022/08/10 08:37:51;;;;;;;2.80;1.20;;;;;;;35.85;23.46;100566.50;4771302;30;20025;-85
2022/08/10 08:40:31;;;;;;;1.63;1.15;;;;;;;34.94;24.39;100568.50;4771599;30;20544;-85
2022/08/10 08:43:16;;;;;;;1.63;1.50;;;;;;;34.15;24.98;100552.75;4746833;30;20062;-85
2022/08/10 08:46:04;;;;;;;1.55;1.23;;;;;;;34.00;25.71;100567.75;4765407;29;20056;-84
2022/08/10 08:48:49;;;;;;;2.28;1.30;;;;;;;34.65;25.49;100550.63;4785241;29;20050;-84
2022/08/10 08:51:36;;;;;;;2.38;1.40;;;;;;;35.82;24.57;100548.72;4773085;30;20059;-84
2022/08/10 08:54:40;;;;;;;2.25;1.52;;;;;;;38.29;22.77;100546.31;4773606;30;20050;-83
2022/08/10 08:57:36;;;;;;;2.78;1.70;;;;;;;40.19;20.23;100533.75;4775664;30;20099;-83
2022/08/10 09:00:12;;;;;;;3.17;1.77;;;;;;;39.95;19.88;100499.50;4752229;30;20104;-84
2022/08/10 09:03:15;;;;;;;1.42;1.33;;;;;;;39.29;20.12;100520.13;4755869;30;20074;-84
2022/08/10 09:06:08;;;;;;;3.22;2.05;;;;;;;38.38;20.78;100542.56;4767879;30;20144;-85
2022/08/10 09:08:50;;;;;;;1.40;1.30;;;;;;;36.67;21.93;100510.97;4774550;30;20071;-84
2022/08/10 09:11:29;;;;;;;3.17;1.52;;;;;;;35.32;22.35;100512.38;4780060;30;20054;-86
2022/08/10 09:14:14;;;;;;;1.40;1.25;;;;;;;34.26;23.85;100513.06;4769213;30;20058;-84
2022/08/10 09:17:05;;;;;;;1.80;1.20;;;;;;;33.53;24.98;100538.91;4774495;30;20051;-85
2022/08/10 09:19:55;;;;;;;3.22;1.73;;;;;;;32.77;26.06;100522.44;4765326;30;20101;-84
2022/08/10 09:22:30;;;;;;;1.48;1.20;;;;;;;32.21;26.28;100535.50;4767213;30;20523;-84
2022/08/10 09:25:08;;;;;;;2.45;1.20;;;;;;;31.30;26.58;100487.78;4765281;30;20048;-84
2022/08/10 09:27:46;;;;;;;2.05;1.30;;;;;;;31.05;26.99;100526.56;4764286;30;20051;-83
2022/08/10 09:30:17;;;;;;;1.67;1.30;;;;;;;30.76;27.47;100517.31;4762978;30;20071;-84
2022/08/10 09:32:52;;;;;;;2.72;1.13;;;;;;;30.41;28.15;100507.63;4750469;30;20051;-84
2022/08/10 09:35:40;;;;;;;2.70;1.58;;;;;;;30.27;28.93;100538.25;4769768;30;20047;-84
2022/08/10 09:38:12;;;;;;;3.92;1.60;;;;;;;30.08;29.50;100536.19;4766785;30;20055;-83
2022/08/10 09:40:47;;;;;;;1.40;1.30;;;;;;;29.66;30.17;100531.41;4765151;30;20101;-85
2022/08/10 09:43:23;;;;;;;2.25;1.60;;;;;;;29.29;30.46;100529.72;4775782;30;20083;-83
2022/08/10 09:46:11;;;;;;;2.03;1.45;;;;;;;28.96;30.58;100517.91;4776698;30;20044;-85
2022/08/10 09:48:56;;;;;;;3.53;1.50;;;;;;;29.01;30.83;100544.34;4763645;30;20156;-85
2022/08/10 09:52:04;;;;;;;3.70;1.50;;;;;;;28.82;31.39;100540.34;4769039;30;20055;-84
2022/08/10 09:55:05;;;;;;;2.63;1.40;;;;;;;28.89;31.69;100542.56;4764390;30;20088;-86
2022/08/10 09:58:03;;;;;;;1.75;1.20;;;;;;;28.89;31.38;100534.53;4790001;29;20097;-87
2022/08/10 10:01:11;;;;;;;1.63;1.48;;;;;;;28.63;31.88;100537.28;4761204;29;20044;-87
2022/08/10 10:03:54;;;;;;;1.55;1.45;;;;;;;28.65;32.07;100546.06;4764201;29;20047;-86
2022/08/10 10:06:35;;;;;;;2.97;1.48;;;;;;;28.53;32.49;100523.72;4770017;30;20421;-91
2022/08/10 10:09:27;;;;;;;1.80;1.60;;;;;;;28.48;32.63;100516.06;4762439;30;20063;-87
2022/08/10 10:12:20;;;;;;;1.80;1.70;;;;;;;28.20;33.09;100515.38;4760181;30;20056;-85
2022/08/10 10:18:06;;;;;;;2.10;1.70;;;;;;;28.03;33.66;100545.13;4760421;30;20126;-84
2022/08/10 10:20:47;;;;;;;2.15;1.70;;;;;;;27.89;33.65;100511.34;4757206;30;20047;-85
2022/08/10 10:23:48;;;;;;;3.78;1.70;;;;;;;27.85;33.08;100539.25;4792354;29;20028;-84
2022/08/10 10:26:39;;;;;;;4.53;1.60;;;;;;;27.78;34.30;100534.34;4789165;30;20142;-87
2022/08/10 10:30:07;;;;;;;1.95;1.50;;;;;;;27.70;34.75;100536.69;4791428;30;20036;-86
2022/08/10 10:33:01;;;;;;;2.75;1.48;;;;;;;27.55;34.23;100533.25;4771353;30;20066;-86
2022/08/10 10:35:36;;;;;;;4.47;1.40;;;;;;;27.43;35.36;100534.06;4752981;30;20048;-85
2022/08/10 10:38:07;;;;;;;2.78;2.10;;;;;;;27.39;35.28;100532.56;4785685;30;20062;-85
2022/08/10 10:40:54;;;;;;;;;;;;;;;27.33;35.74;100531.19;4770079;30;20036;-84
2022/08/10 10:43:58;;;;;;;2.55;2.00;;;;;;;27.37;35.10;100527.31;4801117;30;19932;-85
2022/08/10 10:46:50;;;;;;;2.13;1.60;;;;;;;27.37;35.45;100527.31;4838598;24;20034;-81
2022/08/10 10:49:33;;;;;;;2.65;1.70;;;;;;;27.24;35.16;100524.66;4781904;30;20083;-83
2022/08/10 10:52:36;;;;;;;1.90;1.80;;;;;;;27.31;35.70;100517.91;4767351;30;20039;-84
2022/08/10 10:55:19;;;;;;;3.42;1.88;;;;;;;27.26;35.68;100528.03;4778240;30;20057;-78
2022/08/10 10:58:21;;;;;;;3.83;2.58;;;;;;;27.24;36.41;100526.44;4788084;30;20049;-84
2022/08/10 11:01:11;;;;;;;2.55;1.80;;;;;;;27.03;36.48;100529.59;4759396;30;20079;-81
2022/08/10 11:03:51;;;;;;;2.33;1.90;;;;;;;26.99;36.89;100498.72;4733067;30;20059;-84
2022/08/10 11:06:35;;;;;;;3.22;1.88;;;;;;;27.17;36.95;100531.34;4750940;30;20186;-83
2022/08/10 11:09:07;;;;;;;2.10;1.58;;;;;;;27.12;36.32;100522.78;4755335;30;20673;-83
2022/08/10 11:11:38;;;;;;;4.03;1.70;;;;;;;26.94;36.56;100501.72;4777817;30;20047;-81
2022/08/10 11:14:28;;;;;;;5.15;1.70;;;;;;;27.16;36.40;100532.31;4735619;30;20028;-81
2022/08/10 11:17:21;;;;;;;1.80;1.70;;;;;;;27.12;35.99;100528.13;4761820;30;21330;-82
2022/08/10 11:20:02;;;;;;;3.30;1.70;;;;;;;27.03;36.62;100532.28;4738074;30;20055;-82
2022/08/10 11:22:33;;;;;;;1.80;1.70;;;;;;;27.11;36.07;100519.28;4753629;30;20141;-83
2022/08/10 11:25:28;;;;;;;4.78;2.00;;;;;;;27.21;36.30;100535.53;4751301;30;20048;-82
2022/08/10 11:28:19;;;;;;;1.95;1.70;;;;;;;27.24;36.31;100530.00;4734919;30;20129;-84
2022/08/10 11:30:55;;;;;;;3.53;1.75;;;;;;;27.00;35.79;100487.97;4763747;30;20074;-84
2022/08/10 11:33:57;;;;;;;2.30;1.73;;;;;;;26.97;36.47;100501.50;4773795;30;20107;-85
2022/08/10 11:36:23;;;;;;;1.70;1.50;;;;;;;27.32;36.36;100527.63;4755520;30;20135;-83
2022/08/10 11:38:59;;;;;;;4.50;1.60;;;;;;;27.29;36.17;100529.66;4772451;30;20682;-84
2022/08/10 11:41:45;;;;;;;2.83;1.73;;;;;;;27.35;36.47;100526.59;4769633;30;20056;-86
2022/08/10 11:44:30;;;;;;;2.08;1.65;;;;;;;27.36;36.21;100522.97;4756033;30;20043;-87
2022/08/10 11:47:07;;;;;;;2.28;1.50;;;;;;;27.49;36.07;100523.84;4774098;30;20070;-82
2022/08/10 11:49:57;;;;;;;2.05;1.30;;;;;;;27.26;35.86;100458.59;4766585;30;20036;-85
2022/08/10 11:53:14;;;;;;;1.50;1.40;;;;;;;27.90;35.38;100519.25;4781403;30;20145;-85
2022/08/10 11:55:44;;;;;;;1.77;1.60;;;;;;;27.71;35.30;100486.75;4770224;30;20055;-86
2022/08/10 12:01:02;;;;;;;2.53;1.63;;;;;;;27.76;34.80;100473.91;4768302;30;20065;-84
2022/08/10 12:03:31;;;;;;;3.22;2.42;;;;;;;27.89;34.80;100503.31;4771410;30;20103;-84
2022/08/10 12:05:59;;;;;;;3.63;1.60;;;;;;;27.92;34.15;100527.16;4760486;30;20023;-87
2022/08/10 12:08:29;;;;;;;2.85;2.03;;;;;;;27.93;34.65;100526.19;4776745;30;20028;-85
2022/08/10 12:10:56;;;;;;;1.77;1.50;;;;;;;27.80;34.30;100470.06;4757808;30;20044;-88